createdAt,value
2023-01-27T00:01:10.915Z,34.50
2023-01-27T00:03:38.568Z,30.10
2023-01-27T00:06:06.519Z,21.50
2023-01-27T00:08:34.506Z,21.10
2023-01-27T00:11:20.738Z,24.30
2023-01-27T00:13:48.647Z,23.30
2023-01-27T00:16:16.471Z,19.80
2023-01-27T00:18:44.268Z,31.20
2023-01-27T00:21:30.716Z,19.60
2023-01-27T00:24:17.191Z,20.10
2023-01-27T00:26:44.899Z,22.50
2023-01-27T00:29:13.442Z,22.80
2023-01-27T00:31:59.750Z,20.70
2023-01-27T00:34:27.487Z,19.50
2023-01-27T00:36:55.205Z,21.60
2023-01-27T00:39:23.008Z,23.00
2023-01-27T00:41:50.699Z,19.50
2023-01-27T00:44:18.310Z,28.70
2023-01-27T00:46:46.065Z,21.40
2023-01-27T00:49:13.821Z,27.30
2023-01-27T00:51:42.239Z,26.10
2023-01-27T00:54:10.327Z,26.20
2023-01-27T00:56:38.542Z,14.80
2023-01-27T00:59:06.726Z,20.10
2023-01-27T01:01:35.186Z,22.30
2023-01-27T01:04:03.649Z,12.70
2023-01-27T01:06:31.874Z,14.00
2023-01-27T01:08:59.625Z,17.30
2023-01-27T01:11:27.687Z,18.00
2023-01-27T01:13:56.560Z,20.30
2023-01-27T01:16:25.628Z,15.30
2023-01-27T01:18:54.099Z,22.60
2023-01-27T01:21:22.028Z,15.50
2023-01-27T01:23:50.134Z,19.40
2023-01-27T01:26:18.720Z,21.40
2023-01-27T01:28:47.092Z,16.80
2023-01-27T01:31:17.901Z,29.10
2023-01-27T01:33:47.311Z,23.10
2023-01-27T01:36:18.673Z,24.80
2023-01-27T01:38:46.840Z,27.00
2023-01-27T01:41:18.459Z,35.90
2023-01-27T01:43:48.268Z,26.20
2023-01-27T01:46:16.826Z,22.90
2023-01-27T01:48:58.463Z,30.10
2023-01-27T01:51:40.240Z,23.20
2023-01-27T01:54:17.036Z,22.40
2023-01-27T01:56:58.138Z,24.10
2023-01-27T01:59:35.468Z,22.30
2023-01-27T02:02:07.378Z,20.90
2023-01-27T02:04:42.511Z,20.10
2023-01-27T02:07:19.894Z,24.40
2023-01-27T02:09:47.787Z,20.90
2023-01-27T02:12:15.582Z,25.00
2023-01-27T02:14:43.306Z,24.60
2023-01-27T02:17:13.058Z,24.80
2023-01-27T02:20:05.249Z,20.80
2023-01-27T02:22:35.894Z,21.90
2023-01-27T02:25:15.519Z,19.90
2023-01-27T02:27:43.418Z,25.20
2023-01-27T02:30:11.459Z,25.20
2023-01-27T02:32:40.206Z,21.60
2023-01-27T02:35:14.170Z,23.80
2023-01-27T02:37:42.438Z,20.20
2023-01-27T02:40:12.363Z,18.90
2023-01-27T02:45:08.033Z,20.60
2023-01-27T02:47:35.981Z,18.10
2023-01-27T02:50:03.929Z,19.30
2023-01-27T02:52:31.914Z,23.30
2023-01-27T02:54:59.826Z,15.40
2023-01-27T02:57:27.555Z,20.30
2023-01-27T03:00:13.273Z,21.30
2023-01-27T03:02:41.041Z,19.30
2023-01-27T03:05:09.102Z,19.40
2023-01-27T03:07:36.769Z,18.60
2023-01-27T03:10:04.819Z,18.10
2023-01-27T03:12:32.495Z,20.20
2023-01-27T03:15:19.000Z,20.50
2023-01-27T03:18:05.759Z,23.20
2023-01-27T03:20:33.932Z,17.90
2023-01-27T03:23:01.673Z,15.20
2023-01-27T03:25:29.485Z,24.80
2023-01-27T03:27:57.698Z,20.30
2023-01-27T03:30:48.527Z,15.40
2023-01-27T03:33:23.138Z,20.00
2023-01-27T03:36:20.845Z,21.60
2023-01-27T03:39:09.291Z,21.20
2023-01-27T03:41:55.732Z,25.60
2023-01-27T03:44:44.993Z,19.50
2023-01-27T03:47:12.599Z,18.20
2023-01-27T03:49:40.315Z,22.50
2023-01-27T03:52:07.965Z,19.00
2023-01-27T03:54:35.625Z,18.90
2023-01-27T03:57:06.145Z,20.10
2023-01-27T03:59:34.292Z,16.30
2023-01-27T04:02:20.916Z,19.90
2023-01-27T04:05:07.280Z,17.80
2023-01-27T04:07:36.221Z,13.60
2023-01-27T04:10:05.323Z,20.40
2023-01-27T04:12:33.005Z,20.90
2023-01-27T04:15:00.671Z,19.60
2023-01-27T04:17:28.350Z,17.10
2023-01-27T04:19:56.214Z,17.10
2023-01-27T04:22:23.805Z,15.40
2023-01-27T04:24:51.546Z,18.70
2023-01-27T04:27:20.378Z,19.30
2023-01-27T04:29:48.714Z,17.60
2023-01-27T04:32:16.385Z,17.10
2023-01-27T04:34:43.963Z,20.20
2023-01-27T04:37:11.810Z,19.30
2023-01-27T04:39:41.306Z,16.80
2023-01-27T04:42:09.002Z,16.80
2023-01-27T04:44:36.669Z,18.60
2023-01-27T04:47:04.355Z,18.10
2023-01-27T04:49:31.998Z,18.50
2023-01-27T04:51:59.688Z,21.30
2023-01-27T04:54:27.287Z,21.10
2023-01-27T04:56:58.548Z,21.60
2023-01-27T04:59:26.923Z,21.40
2023-01-27T05:01:54.871Z,18.40
2023-01-27T05:04:22.786Z,16.50
2023-01-27T05:06:50.539Z,16.60
2023-01-27T05:09:18.248Z,15.00
2023-01-27T05:11:45.902Z,14.40
2023-01-27T05:14:14.729Z,16.90
2023-01-27T05:16:42.516Z,15.90
2023-01-27T05:19:10.143Z,21.80
2023-01-27T05:21:37.833Z,20.60
2023-01-27T05:24:05.723Z,17.00
2023-01-27T05:26:33.453Z,21.20
2023-01-27T05:29:01.154Z,16.30
2023-01-27T05:31:31.750Z,14.10
2023-01-27T05:34:02.023Z,19.20
2023-01-27T05:36:30.440Z,17.60
2023-01-27T05:38:59.139Z,21.50
2023-01-27T05:41:31.069Z,19.20
2023-01-27T05:43:58.868Z,18.30
2023-01-27T05:46:29.331Z,18.10
2023-01-27T05:49:00.385Z,18.90
2023-01-27T05:51:33.850Z,21.30
2023-01-27T05:54:01.659Z,19.80
2023-01-27T05:56:29.425Z,17.60
2023-01-27T05:58:58.327Z,22.50
2023-01-27T06:01:29.284Z,21.10
2023-01-27T06:03:57.011Z,22.50
2023-01-27T06:06:27.170Z,25.50
2023-01-27T06:08:55.077Z,20.50
2023-01-27T06:11:24.318Z,27.60
2023-01-27T06:13:53.116Z,22.30
2023-01-27T06:16:22.356Z,19.60
2023-01-27T06:18:50.308Z,21.70
2023-01-27T06:21:18.438Z,22.20
2023-01-27T06:23:46.169Z,19.90
2023-01-27T06:26:18.895Z,19.40
2023-01-27T06:28:46.753Z,23.10
2023-01-27T06:31:17.384Z,26.70
2023-01-27T06:33:45.334Z,23.90
2023-01-27T06:36:18.798Z,22.70
2023-01-27T06:38:47.084Z,26.20
2023-01-27T06:41:15.293Z,24.80
2023-01-27T06:43:42.945Z,17.80
2023-01-27T06:46:10.769Z,21.00
2023-01-27T06:48:38.453Z,24.30
2023-01-27T06:51:06.853Z,20.60
2023-01-27T06:53:37.222Z,27.10
2023-01-27T06:56:05.976Z,20.00
2023-01-27T06:58:33.650Z,23.30
2023-01-27T07:01:01.623Z,23.50
2023-01-27T07:03:29.859Z,32.10
2023-01-27T07:05:58.227Z,18.90
2023-01-27T07:08:26.912Z,18.10
2023-01-27T07:10:54.626Z,19.40
2023-01-27T07:13:22.597Z,21.40
2023-01-27T07:15:55.449Z,21.60
2023-01-27T07:18:23.403Z,21.90
2023-01-27T07:20:51.553Z,25.40
2023-01-27T07:23:19.216Z,24.00
2023-01-27T07:25:46.850Z,23.60
2023-01-27T07:28:14.505Z,24.40
2023-01-27T07:30:43.985Z,22.10
2023-01-27T07:33:14.414Z,26.40
2023-01-27T07:35:43.202Z,30.70
2023-01-27T07:38:11.150Z,27.80
2023-01-27T07:40:38.840Z,27.00
2023-01-27T07:43:06.652Z,26.00
2023-01-27T07:45:35.683Z,30.30
2023-01-27T07:48:07.035Z,27.30
2023-01-27T07:50:36.208Z,29.00
2023-01-27T07:53:05.236Z,32.50
2023-01-27T07:55:33.994Z,27.80
2023-01-27T07:58:02.243Z,37.30
2023-01-27T08:00:30.880Z,33.20
2023-01-27T08:02:59.708Z,28.30
2023-01-27T08:05:28.462Z,30.00
2023-01-27T08:07:58.573Z,22.80
2023-01-27T08:10:26.709Z,29.00
2023-01-27T08:12:54.415Z,38.80
2023-01-27T08:15:22.805Z,21.70
2023-01-27T08:17:54.981Z,30.70
2023-01-27T08:20:24.401Z,29.80
2023-01-27T08:22:52.732Z,20.90
2023-01-27T08:25:20.595Z,30.00
2023-01-27T08:27:50.720Z,34.00
2023-01-27T08:30:19.347Z,31.20
2023-01-27T08:32:47.799Z,24.80
2023-01-27T08:35:15.622Z,31.40
2023-01-27T08:37:43.232Z,24.00
2023-01-27T08:40:11.923Z,24.10
2023-01-27T08:42:39.734Z,27.80
2023-01-27T08:45:08.840Z,24.20
2023-01-27T08:47:36.534Z,27.80
2023-01-27T08:50:04.376Z,25.40
2023-01-27T08:52:32.129Z,25.00
2023-01-27T08:55:00.462Z,28.40
2023-01-27T08:57:28.353Z,24.90
2023-01-27T08:59:55.968Z,25.30
2023-01-27T09:02:24.382Z,32.40
2023-01-27T09:04:52.242Z,22.30
2023-01-27T09:07:19.981Z,22.50
2023-01-27T09:09:48.487Z,22.10
2023-01-27T09:12:16.595Z,25.40
2023-01-27T09:14:44.344Z,26.20
2023-01-27T09:17:12.013Z,27.70
2023-01-27T09:19:39.739Z,29.80
2023-01-27T09:22:07.437Z,29.60
2023-01-27T09:24:35.083Z,24.90
2023-01-27T09:27:02.777Z,23.10
2023-01-27T09:29:31.105Z,18.00
2023-01-27T09:31:59.411Z,18.40
2023-01-27T09:34:27.177Z,25.30
2023-01-27T09:37:01.277Z,22.50
2023-01-27T09:39:31.292Z,25.30
2023-01-27T09:42:08.899Z,18.10
2023-01-27T09:45:07.652Z,14.90
2023-01-27T09:47:46.497Z,16.90
2023-01-27T09:50:20.352Z,19.70
2023-01-27T09:52:57.802Z,24.50
2023-01-27T09:55:54.893Z,19.60
2023-01-27T09:58:31.415Z,21.40
2023-01-27T10:01:12.081Z,25.00
2023-01-27T10:04:12.729Z,18.00
2023-01-27T10:06:52.743Z,15.20
2023-01-27T10:09:23.143Z,14.60
2023-01-27T10:12:09.232Z,22.30
2023-01-27T10:14:39.580Z,19.70
2023-01-27T10:17:15.073Z,13.50
2023-01-27T10:20:05.575Z,21.80
2023-01-27T10:22:50.393Z,21.10
2023-01-27T10:25:33.032Z,12.80
2023-01-27T10:28:11.094Z,12.70
2023-01-27T10:30:56.128Z,13.30
2023-01-27T10:33:36.429Z,12.20
2023-01-27T10:36:16.771Z,14.40
2023-01-27T10:38:52.278Z,19.70
2023-01-27T10:41:51.267Z,17.10
2023-01-27T10:44:35.486Z,15.60
2023-01-27T10:47:09.251Z,14.10
2023-01-27T10:50:01.728Z,15.00
2023-01-27T10:52:48.976Z,14.80
2023-01-27T10:55:22.531Z,9.50
2023-01-27T10:58:04.750Z,10.50
2023-01-27T11:01:18.186Z,19.00
2023-01-27T11:03:34.698Z,15.00
2023-01-27T11:06:12.357Z,14.80
2023-01-27T11:08:44.986Z,14.20
2023-01-27T11:11:35.789Z,16.20
2023-01-27T11:14:12.601Z,15.50
2023-01-27T11:16:45.838Z,17.30
2023-01-27T11:19:42.498Z,16.00
2023-01-27T11:22:23.101Z,17.90
2023-01-27T11:25:14.850Z,16.30
2023-01-27T11:27:54.415Z,16.80
2023-01-27T11:30:32.346Z,17.30
2023-01-27T11:33:11.467Z,20.40
2023-01-27T11:35:39.166Z,15.80
2023-01-27T11:38:15.683Z,14.50
2023-01-27T11:40:45.819Z,21.40
2023-01-27T11:43:18.935Z,19.20
2023-01-27T11:45:48.457Z,32.40
2023-01-27T11:48:18.448Z,53.70
2023-01-27T11:50:46.878Z,57.50
2023-01-27T11:53:22.741Z,38.60
2023-01-27T11:58:26.482Z,19.10
2023-01-27T12:00:59.039Z,13.90
2023-01-27T12:03:42.299Z,15.90
2023-01-27T12:06:33.776Z,26.40
2023-01-27T12:09:01.603Z,14.90
2023-01-27T12:11:31.197Z,96.20
2023-01-27T12:14:01.656Z,41.10
2023-01-27T12:16:42.798Z,32.00
2023-01-27T12:19:25.344Z,52.20
2023-01-27T12:21:58.041Z,26.60
2023-01-27T12:24:38.429Z,18.00
2023-01-27T12:27:07.526Z,18.70
2023-01-27T12:29:45.026Z,17.20
2023-01-27T12:32:21.514Z,15.10
2023-01-27T12:34:52.680Z,20.10
2023-01-27T12:37:29.294Z,22.00
2023-01-27T12:40:02.888Z,23.70
2023-01-27T12:42:36.514Z,21.30
2023-01-27T12:45:22.129Z,24.50
2023-01-27T12:48:10.195Z,22.90
2023-01-27T12:50:38.747Z,28.90
2023-01-27T12:53:23.597Z,39.60
2023-01-27T12:56:01.508Z,22.80
2023-01-27T12:58:55.302Z,17.00
2023-01-27T13:01:23.077Z,42.10
2023-01-27T13:04:18.494Z,17.00
2023-01-27T13:06:55.581Z,22.80
2023-01-27T13:09:23.341Z,16.70
2023-01-27T13:11:52.244Z,31.80
2023-01-27T13:14:20.132Z,22.00
2023-01-27T13:16:53.272Z,136.80
2023-01-27T13:19:29.831Z,27.70
2023-01-27T13:21:58.290Z,16.90
2023-01-27T13:24:37.165Z,29.70
2023-01-27T13:27:10.909Z,53.90
2023-01-27T13:29:40.739Z,23.50
2023-01-27T13:34:50.513Z,23.40
2023-01-27T13:37:36.788Z,24.20
2023-01-27T13:40:22.471Z,25.40
2023-01-27T13:43:01.466Z,21.50
2023-01-27T13:45:47.405Z,21.50
2023-01-27T13:48:28.427Z,14.50
2023-01-27T13:51:06.818Z,21.30
2023-01-27T13:53:34.866Z,27.40
2023-01-27T13:56:11.641Z,19.50
2023-01-27T13:58:51.322Z,24.00
2023-01-27T14:01:37.917Z,38.80
2023-01-27T14:04:24.229Z,23.10
2023-01-27T14:06:54.935Z,26.70
2023-01-27T14:09:44.147Z,22.90
2023-01-27T14:12:27.385Z,25.40
2023-01-27T14:14:59.043Z,42.30
2023-01-27T14:17:38.921Z,40.00
2023-01-27T14:20:37.346Z,40.30
2023-01-27T14:23:05.048Z,65.10
2023-01-27T14:25:57.999Z,34.30
2023-01-27T14:28:33.677Z,20.90
2023-01-27T14:31:11.753Z,31.10
2023-01-27T14:34:00.722Z,28.80
2023-01-27T14:36:48.598Z,28.40
2023-01-27T14:39:29.171Z,19.50
2023-01-27T14:42:26.056Z,32.80
2023-01-27T14:45:15.998Z,38.20
2023-01-27T14:48:13.202Z,26.50
2023-01-27T14:50:59.513Z,31.50
2023-01-27T14:53:58.820Z,52.40
2023-01-27T14:56:59.962Z,28.40
2023-01-27T14:59:37.025Z,39.00
2023-01-27T15:02:17.593Z,32.80
2023-01-27T15:05:15.366Z,43.20
2023-01-27T15:07:48.739Z,37.70
2023-01-27T15:10:27.727Z,30.00
2023-01-27T15:13:36.293Z,25.00
2023-01-27T15:16:22.925Z,38.70
2023-01-27T15:19:26.460Z,35.80
2023-01-27T15:21:54.044Z,29.00
2023-01-27T15:24:45.394Z,30.40
2023-01-27T15:27:13.468Z,32.60
2023-01-27T15:29:41.381Z,52.70
2023-01-27T15:32:26.403Z,52.70
2023-01-27T15:35:29.224Z,33.80
2023-01-27T15:38:07.747Z,41.60
2023-01-27T15:40:57.811Z,43.50
2023-01-27T15:43:30.120Z,49.30
2023-01-27T15:46:18.594Z,45.70
2023-01-27T15:51:20.301Z,44.20
2023-01-27T15:53:54.875Z,61.70
2023-01-27T15:56:41.622Z,127.20
2023-01-27T15:59:15.980Z,130.60
2023-01-27T16:01:43.683Z,127.60
2023-01-27T16:04:11.331Z,92.00
2023-01-27T16:06:52.762Z,142.20
2023-01-27T16:09:34.642Z,69.70
2023-01-27T16:12:31.446Z,65.20
2023-01-27T16:15:01.869Z,54.80
2023-01-27T16:17:33.315Z,43.50
2023-01-27T16:20:20.991Z,88.10
2023-01-27T16:22:58.329Z,103.60
2023-01-27T16:25:41.198Z,87.20
2023-01-27T16:28:20.003Z,143.40
2023-01-27T16:30:57.282Z,72.00
2023-01-27T16:33:31.094Z,63.80
2023-01-27T16:36:06.457Z,67.30
2023-01-27T16:38:37.005Z,111.10
2023-01-27T16:41:16.156Z,112.30
2023-01-27T16:43:48.689Z,64.50
2023-01-27T16:46:38.133Z,81.10
2023-01-27T16:49:32.222Z,48.40
2023-01-27T16:52:05.124Z,63.90
2023-01-27T16:54:40.038Z,56.50
2023-01-27T16:57:23.463Z,50.80
2023-01-27T16:59:52.251Z,53.50
2023-01-27T17:02:23.934Z,39.40
2023-01-27T17:04:56.127Z,42.50
2023-01-27T17:07:23.858Z,42.20
2023-01-27T17:09:54.850Z,36.40
2023-01-27T17:12:33.257Z,43.80
2023-01-27T17:15:15.561Z,32.60
2023-01-27T17:17:43.770Z,41.20
2023-01-27T17:20:23.832Z,31.60
2023-01-27T17:22:54.369Z,35.20
2023-01-27T17:25:41.669Z,48.70
2023-01-27T17:28:16.906Z,41.60
2023-01-27T17:30:46.822Z,91.80
2023-01-27T17:33:18.672Z,39.40
2023-01-27T17:35:52.479Z,62.50
2023-01-27T17:38:25.957Z,56.70
2023-01-27T17:40:55.080Z,32.60
2023-01-27T17:43:30.989Z,36.40
2023-01-27T17:46:14.924Z,37.20
2023-01-27T17:48:52.265Z,34.50
2023-01-27T17:51:25.585Z,24.80
2023-01-27T17:53:54.554Z,36.20
2023-01-27T17:56:27.841Z,35.00
2023-01-27T17:59:03.021Z,56.00
2023-01-27T18:01:31.657Z,38.30
2023-01-27T18:04:00.164Z,36.40
2023-01-27T18:06:32.105Z,29.50
2023-01-27T18:09:14.573Z,67.50
2023-01-27T18:12:01.311Z,63.50
2023-01-27T18:14:34.252Z,48.50
2023-01-27T18:17:23.081Z,76.00
2023-01-27T18:19:53.188Z,48.20
2023-01-27T18:22:22.452Z,58.60
2023-01-27T18:24:53.442Z,53.30
2023-01-27T18:27:28.065Z,38.50
2023-01-27T18:30:00.717Z,30.90
2023-01-27T18:32:37.658Z,34.00
2023-01-27T18:35:25.316Z,34.00
2023-01-27T18:38:01.625Z,34.80
2023-01-27T18:40:32.924Z,36.20
2023-01-27T18:43:02.483Z,32.90
2023-01-27T18:45:31.036Z,36.90
2023-01-27T18:47:59.564Z,36.80
2023-01-27T18:50:28.145Z,23.30
2023-01-27T18:52:55.755Z,41.30
2023-01-27T18:55:28.918Z,41.80
2023-01-27T18:57:58.780Z,45.80
2023-01-27T19:00:30.339Z,54.70
2023-01-27T19:03:01.051Z,71.80
2023-01-27T19:05:32.140Z,50.90
2023-01-27T19:08:00.709Z,67.00
2023-01-27T19:10:32.447Z,54.60
2023-01-27T19:13:02.617Z,39.80
2023-01-27T19:15:37.360Z,45.30
2023-01-27T19:18:24.314Z,40.10
2023-01-27T19:20:53.214Z,30.20
2023-01-27T19:23:21.653Z,32.20
2023-01-27T19:25:53.282Z,31.40
2023-01-27T19:28:29.061Z,48.10
2023-01-27T19:30:57.745Z,43.80
2023-01-27T19:33:28.054Z,53.30
2023-01-27T19:36:14.062Z,93.50
2023-01-27T19:38:41.770Z,42.40
2023-01-27T19:41:10.753Z,63.40
2023-01-27T19:43:38.515Z,63.40
2023-01-27T19:46:13.762Z,76.60
2023-01-27T19:48:41.775Z,60.90
2023-01-27T19:51:11.960Z,62.60
2023-01-27T19:53:39.670Z,66.40
2023-01-27T19:56:17.156Z,56.80
2023-01-27T19:58:47.188Z,59.10
2023-01-27T20:01:15.033Z,51.10
2023-01-27T20:03:42.823Z,41.60
2023-01-27T20:06:17.534Z,42.60
2023-01-27T20:08:45.214Z,61.30
2023-01-27T20:11:34.593Z,44.10
2023-01-27T20:14:26.141Z,49.60
2023-01-27T20:16:53.829Z,53.90
2023-01-27T20:19:21.495Z,59.90
2023-01-27T20:21:50.151Z,60.20
2023-01-27T20:24:19.771Z,38.00
2023-01-27T20:26:47.843Z,52.60
2023-01-27T20:29:15.598Z,50.50
2023-01-27T20:31:43.543Z,41.10
2023-01-27T20:34:11.499Z,51.10
2023-01-27T20:36:39.301Z,49.20
2023-01-27T20:39:06.998Z,54.90
2023-01-27T20:41:34.620Z,31.70
2023-01-27T20:44:02.365Z,53.00
2023-01-27T20:46:30.745Z,42.10
2023-01-27T20:48:58.998Z,40.00
2023-01-27T20:51:26.875Z,43.80
2023-01-27T20:53:54.885Z,49.20
2023-01-27T20:56:23.914Z,51.90
2023-01-27T20:58:51.763Z,41.60
2023-01-27T21:01:21.978Z,42.30
2023-01-27T21:03:50.581Z,38.60
2023-01-27T21:06:21.732Z,31.00
2023-01-27T21:08:49.732Z,49.20
2023-01-27T21:11:20.070Z,49.60
2023-01-27T21:13:48.822Z,40.60
2023-01-27T21:16:16.649Z,39.30
2023-01-27T21:18:44.583Z,48.50
2023-01-27T21:21:28.022Z,32.60
2023-01-27T21:23:57.395Z,36.90
2023-01-27T21:26:25.147Z,37.90
2023-01-27T21:28:53.243Z,45.70
2023-01-27T21:31:22.163Z,40.40
2023-01-27T21:33:50.752Z,38.10
2023-01-27T21:36:19.410Z,42.40
2023-01-27T21:38:50.333Z,31.20
2023-01-27T21:41:57.974Z,41.00
2023-01-27T21:44:46.763Z,43.40
2023-01-27T21:47:17.748Z,36.70
2023-01-27T21:50:02.841Z,41.00
2023-01-27T21:52:35.580Z,37.50
2023-01-27T21:55:06.291Z,42.70
2023-01-27T21:57:34.879Z,40.30
2023-01-27T22:00:05.301Z,29.30
2023-01-27T22:02:40.047Z,40.40
2023-01-27T22:05:09.618Z,35.80
2023-01-27T22:07:38.529Z,36.80
2023-01-27T22:10:08.996Z,40.60
2023-01-27T22:12:36.638Z,35.40
2023-01-27T22:15:06.445Z,46.50
2023-01-27T22:20:04.019Z,33.90
2023-01-27T22:22:31.761Z,25.70
2023-01-27T22:24:59.476Z,35.60
2023-01-27T22:27:27.091Z,40.30
2023-01-27T22:29:54.719Z,39.80
2023-01-27T22:32:22.479Z,41.10
2023-01-27T22:34:50.714Z,44.30
2023-01-27T22:37:18.425Z,37.00
2023-01-27T22:39:46.064Z,45.30
2023-01-27T22:42:14.494Z,42.10
2023-01-27T22:44:42.145Z,43.10
2023-01-27T22:47:09.772Z,39.40
2023-01-27T22:49:37.471Z,35.70
2023-01-27T22:52:05.166Z,37.60
2023-01-27T22:54:32.827Z,35.50
2023-01-27T22:57:01.227Z,43.40
2023-01-27T22:59:29.002Z,39.20
2023-01-27T23:01:56.690Z,40.00
2023-01-27T23:04:24.373Z,37.10
2023-01-27T23:06:52.139Z,39.90
2023-01-27T23:09:19.791Z,32.60
2023-01-27T23:11:47.615Z,39.50
2023-01-27T23:14:15.257Z,42.20
2023-01-27T23:16:42.963Z,42.50
2023-01-27T23:19:11.019Z,33.00
2023-01-27T23:21:38.674Z,38.10
2023-01-27T23:24:07.757Z,37.90
2023-01-27T23:26:35.681Z,28.00
2023-01-27T23:29:05.186Z,41.50
2023-01-27T23:31:36.311Z,38.10
2023-01-27T23:34:04.087Z,40.80
2023-01-27T23:36:31.992Z,35.70
2023-01-27T23:38:59.672Z,39.10
2023-01-27T23:41:27.629Z,31.40
2023-01-27T23:43:56.581Z,29.70
2023-01-27T23:46:25.097Z,35.10
2023-01-27T23:48:54.808Z,34.70
2023-01-27T23:53:51.178Z,29.00
2023-01-27T23:56:20.517Z,34.00
2023-01-27T23:58:48.470Z,32.10
